createdAt,value
2018-07-31T00:02:12.953Z,22.77
2018-07-31T00:04:40.876Z,22.74
2018-07-31T00:07:08.755Z,22.71
2018-07-31T00:09:36.390Z,22.70
2018-07-31T00:12:04.302Z,22.71
2018-07-31T00:14:32.183Z,22.69
2018-07-31T00:16:59.833Z,22.65
2018-07-31T00:19:27.476Z,22.63
2018-07-31T00:21:55.404Z,22.61
2018-07-31T00:24:22.994Z,22.59
2018-07-31T00:26:50.807Z,22.57
2018-07-31T00:29:18.723Z,22.56
2018-07-31T00:31:46.442Z,22.56
2018-07-31T00:34:14.192Z,22.54
2018-07-31T00:36:42.152Z,22.51
2018-07-31T00:39:10.830Z,22.49
2018-07-31T00:41:38.700Z,22.48
2018-07-31T00:44:06.590Z,22.38
2018-07-31T00:46:34.203Z,22.46
2018-07-31T00:49:01.993Z,22.44
2018-07-31T00:51:29.934Z,22.41
2018-07-31T00:53:57.624Z,22.38
2018-07-31T00:56:25.477Z,22.36
2018-07-31T00:58:53.387Z,22.34
2018-07-31T01:01:21.252Z,22.33
2018-07-31T01:03:49.087Z,22.31
2018-07-31T01:06:21.544Z,22.28
2018-07-31T01:08:49.415Z,22.27
2018-07-31T01:11:17.213Z,22.27
2018-07-31T01:13:45.029Z,22.26
2018-07-31T01:16:12.694Z,22.24
2018-07-31T01:18:40.406Z,22.22
2018-07-31T01:21:08.109Z,22.20
2018-07-31T01:23:35.691Z,22.17
2018-07-31T01:26:03.541Z,22.15
2018-07-31T01:28:31.412Z,22.11
2018-07-31T01:30:59.052Z,22.11
2018-07-31T01:33:26.862Z,22.06
2018-07-31T01:35:54.783Z,22.04
2018-07-31T01:38:22.420Z,22.03
2018-07-31T01:40:50.313Z,22.02
2018-07-31T01:43:18.117Z,22.00
2018-07-31T01:45:45.745Z,21.98
2018-07-31T01:48:13.518Z,21.95
2018-07-31T01:50:41.412Z,21.92
2018-07-31T01:53:09.058Z,21.90
2018-07-31T01:55:36.766Z,21.88
2018-07-31T01:58:04.542Z,21.86
2018-07-31T02:00:32.153Z,21.85
2018-07-31T02:02:59.976Z,21.84
2018-07-31T02:05:27.776Z,21.81
2018-07-31T02:07:55.380Z,21.80
2018-07-31T02:10:23.309Z,21.78
2018-07-31T02:12:51.089Z,21.77
2018-07-31T02:15:18.745Z,21.74
2018-07-31T02:17:46.476Z,21.72
2018-07-31T02:20:14.331Z,21.71
2018-07-31T02:22:41.960Z,21.69
2018-07-31T02:25:09.848Z,21.68
2018-07-31T02:27:37.648Z,21.66
2018-07-31T02:30:20.216Z,21.64
2018-07-31T02:32:48.122Z,21.62
2018-07-31T02:35:15.875Z,21.63
2018-07-31T02:37:43.702Z,21.61
2018-07-31T02:40:11.597Z,21.58
2018-07-31T02:42:39.324Z,21.55
2018-07-31T02:45:09.042Z,21.53
2018-07-31T02:47:37.186Z,21.53
2018-07-31T02:53:04.052Z,21.47
2018-07-31T02:55:31.647Z,21.45
2018-07-31T02:57:59.302Z,21.44
2018-07-31T03:00:27.357Z,21.46
2018-07-31T03:02:54.985Z,21.44
2018-07-31T03:05:22.649Z,21.44
2018-07-31T03:07:50.579Z,21.45
2018-07-31T03:10:18.241Z,21.46
2018-07-31T03:12:45.849Z,21.45
2018-07-31T03:15:14.007Z,21.44
2018-07-31T03:17:41.641Z,21.44
2018-07-31T03:20:09.362Z,21.46
2018-07-31T03:22:37.230Z,21.47
2018-07-31T03:25:05.072Z,21.48
2018-07-31T03:27:32.808Z,21.50
2018-07-31T03:30:00.974Z,21.52
2018-07-31T03:32:28.548Z,21.53
2018-07-31T03:34:56.157Z,21.55
2018-07-31T03:37:24.113Z,21.56
2018-07-31T03:39:51.777Z,21.56
2018-07-31T03:42:19.378Z,21.57
2018-07-31T03:44:47.327Z,21.57
2018-07-31T03:47:14.993Z,21.57
2018-07-31T03:49:42.676Z,21.56
2018-07-31T03:52:10.798Z,21.56
2018-07-31T03:54:38.465Z,21.56
2018-07-31T03:57:06.308Z,21.59
2018-07-31T03:59:34.276Z,21.59
2018-07-31T04:02:01.936Z,21.60
2018-07-31T04:04:29.615Z,21.62
2018-07-31T04:06:57.776Z,21.65
2018-07-31T04:09:25.469Z,21.67
2018-07-31T04:11:53.135Z,21.72
2018-07-31T04:14:21.054Z,21.73
2018-07-31T04:16:48.676Z,21.76
2018-07-31T04:19:16.356Z,21.78
2018-07-31T04:21:44.323Z,21.83
2018-07-31T04:24:11.970Z,21.86
2018-07-31T04:26:39.587Z,21.82
2018-07-31T04:29:07.447Z,21.92
2018-07-31T04:31:35.194Z,21.97
2018-07-31T04:34:02.879Z,22.00
2018-07-31T04:36:30.832Z,22.02
2018-07-31T04:38:58.439Z,22.06
2018-07-31T04:41:26.086Z,22.10
2018-07-31T04:43:54.116Z,22.15
2018-07-31T04:46:21.776Z,22.19
2018-07-31T04:48:49.410Z,22.22
2018-07-31T04:51:17.504Z,22.28
2018-07-31T04:53:45.137Z,22.33
2018-07-31T04:56:12.733Z,22.38
2018-07-31T04:58:40.769Z,22.44
2018-07-31T05:01:08.418Z,22.48
2018-07-31T05:03:36.082Z,22.52
2018-07-31T05:06:04.130Z,22.57
2018-07-31T05:08:31.759Z,22.61
2018-07-31T05:10:59.441Z,22.66
2018-07-31T05:13:27.545Z,22.70
2018-07-31T05:15:55.101Z,22.77
2018-07-31T05:18:22.790Z,22.83
2018-07-31T05:20:50.541Z,22.88
2018-07-31T05:23:19.149Z,22.93
2018-07-31T05:25:46.760Z,22.98
2018-07-31T05:28:14.905Z,23.02
2018-07-31T05:30:42.584Z,23.09
2018-07-31T05:33:10.167Z,23.15
2018-07-31T05:35:38.021Z,23.21
2018-07-31T05:38:05.710Z,23.26
2018-07-31T05:40:33.374Z,23.30
2018-07-31T05:43:01.487Z,23.35
2018-07-31T05:45:29.108Z,23.40
2018-07-31T05:47:56.667Z,23.43
2018-07-31T05:50:24.669Z,23.48
2018-07-31T05:52:52.847Z,23.51
2018-07-31T05:55:20.509Z,23.55
2018-07-31T05:57:48.506Z,23.60
2018-07-31T06:00:16.162Z,23.66
2018-07-31T06:02:43.835Z,23.71
2018-07-31T06:05:11.728Z,23.76
2018-07-31T06:07:39.406Z,23.81
2018-07-31T06:10:07.579Z,23.87
2018-07-31T06:12:35.486Z,23.93
2018-07-31T06:15:03.281Z,23.99
2018-07-31T06:17:30.949Z,24.05
2018-07-31T06:19:58.947Z,24.10
2018-07-31T06:22:26.605Z,24.17
2018-07-31T06:24:54.232Z,24.21
2018-07-31T06:27:22.252Z,24.26
2018-07-31T06:29:49.918Z,24.31
2018-07-31T06:32:17.573Z,24.38
2018-07-31T06:34:46.513Z,24.43
2018-07-31T06:37:14.136Z,24.47
2018-07-31T06:39:42.114Z,24.51
2018-07-31T06:42:10.443Z,24.55
2018-07-31T06:44:38.330Z,24.62
2018-07-31T06:47:06.218Z,24.69
2018-07-31T06:49:34.168Z,24.75
2018-07-31T06:52:01.751Z,24.79
2018-07-31T06:54:29.382Z,24.86
2018-07-31T06:56:57.419Z,24.91
2018-07-31T06:59:25.040Z,24.97
2018-07-31T07:01:52.736Z,25.03
2018-07-31T07:04:20.654Z,25.09
2018-07-31T07:06:48.382Z,25.15
2018-07-31T07:09:15.984Z,25.20
2018-07-31T07:11:44.057Z,25.24
2018-07-31T07:14:11.774Z,25.29
2018-07-31T07:16:39.459Z,25.35
2018-07-31T07:19:07.556Z,25.41
2018-07-31T07:21:35.246Z,25.46
2018-07-31T07:24:02.930Z,25.53
2018-07-31T07:26:31.015Z,25.59
2018-07-31T07:28:58.642Z,25.66
2018-07-31T07:31:26.316Z,25.70
2018-07-31T07:33:54.307Z,25.75
2018-07-31T07:36:21.896Z,25.76
2018-07-31T07:38:49.569Z,25.79
2018-07-31T07:41:17.448Z,25.81
2018-07-31T07:43:45.087Z,25.83
2018-07-31T07:46:12.751Z,25.84
2018-07-31T07:48:40.619Z,25.84
2018-07-31T07:51:08.287Z,25.84
2018-07-31T07:53:35.837Z,25.87
2018-07-31T07:56:03.953Z,25.91
2018-07-31T07:58:31.540Z,25.94
2018-07-31T08:00:59.262Z,25.96
2018-07-31T08:03:27.105Z,25.98
2018-07-31T08:05:54.722Z,25.99
2018-07-31T08:08:22.392Z,26.01
2018-07-31T08:10:50.355Z,26.03
2018-07-31T08:13:17.958Z,26.06
2018-07-31T08:15:45.603Z,26.10
2018-07-31T08:18:13.490Z,26.12
2018-07-31T08:20:41.116Z,26.14
2018-07-31T08:23:08.751Z,26.15
2018-07-31T08:25:36.674Z,26.17
2018-07-31T08:28:04.435Z,26.20
2018-07-31T08:30:32.056Z,26.24
2018-07-31T08:33:00.098Z,26.28
2018-07-31T08:35:27.997Z,26.31
2018-07-31T08:37:55.799Z,26.36
2018-07-31T08:40:23.895Z,26.43
2018-07-31T08:42:51.529Z,26.49
2018-07-31T08:45:19.264Z,26.54
2018-07-31T08:47:47.392Z,26.59
2018-07-31T08:50:15.039Z,26.64
2018-07-31T08:52:42.697Z,26.68
2018-07-31T08:55:10.756Z,26.72
2018-07-31T08:57:38.396Z,26.76
2018-07-31T09:00:07.546Z,26.82
2018-07-31T09:02:35.728Z,26.86
2018-07-31T09:05:03.582Z,26.92
2018-07-31T09:07:31.281Z,26.96
2018-07-31T09:09:59.385Z,27.01
2018-07-31T09:12:27.022Z,27.08
2018-07-31T09:14:54.571Z,27.14
2018-07-31T09:17:22.545Z,27.21
2018-07-31T09:19:50.136Z,27.29
2018-07-31T09:22:18.179Z,27.39
2018-07-31T09:24:46.257Z,27.47
2018-07-31T09:27:13.880Z,27.55
2018-07-31T09:29:41.670Z,27.64
2018-07-31T09:32:09.538Z,27.72
2018-07-31T09:34:42.645Z,27.78
2018-07-31T09:37:10.434Z,27.87
2018-07-31T09:39:38.276Z,27.97
2018-07-31T09:42:05.985Z,28.09
2018-07-31T09:44:33.862Z,28.21
2018-07-31T09:47:01.761Z,28.36
2018-07-31T09:49:29.454Z,28.51
2018-07-31T09:51:57.308Z,28.71
2018-07-31T09:54:25.189Z,28.96
2018-07-31T09:56:52.818Z,29.19
2018-07-31T09:59:20.565Z,29.42
2018-07-31T10:01:48.425Z,29.62
2018-07-31T10:04:16.110Z,29.80
2018-07-31T10:06:43.874Z,29.97
2018-07-31T10:09:11.638Z,30.16
2018-07-31T10:11:39.278Z,30.30
2018-07-31T10:14:07.625Z,30.38
2018-07-31T10:16:35.381Z,30.34
2018-07-31T10:19:02.969Z,30.26
2018-07-31T10:21:30.742Z,30.15
2018-07-31T10:23:58.598Z,30.08
2018-07-31T10:26:26.215Z,30.07
2018-07-31T10:28:54.092Z,30.11
2018-07-31T10:31:21.862Z,30.16
2018-07-31T10:33:49.427Z,30.17
2018-07-31T10:36:17.151Z,30.17
2018-07-31T10:38:45.055Z,30.20
2018-07-31T10:41:12.629Z,30.20
2018-07-31T10:43:40.431Z,30.22
2018-07-31T10:46:08.299Z,30.23
2018-07-31T10:48:35.923Z,30.23
2018-07-31T10:51:03.840Z,30.23
2018-07-31T10:53:31.855Z,30.30
2018-07-31T10:55:59.438Z,30.33
2018-07-31T10:58:27.330Z,30.35
2018-07-31T11:00:55.146Z,30.39
2018-07-31T11:03:22.695Z,30.42
2018-07-31T11:05:50.514Z,30.40
2018-07-31T11:08:18.381Z,30.40
2018-07-31T11:10:45.997Z,30.40
2018-07-31T11:13:13.737Z,30.41
2018-07-31T11:15:41.603Z,30.41
2018-07-31T11:18:09.308Z,30.38
2018-07-31T11:20:37.095Z,30.38
2018-07-31T11:23:04.926Z,30.39
2018-07-31T11:25:32.553Z,30.36
2018-07-31T11:28:00.505Z,30.35
2018-07-31T11:30:28.292Z,30.41
2018-07-31T11:32:55.992Z,30.47
2018-07-31T11:35:23.777Z,30.53
2018-07-31T11:37:51.490Z,30.56
2018-07-31T11:40:19.159Z,30.60
2018-07-31T11:42:46.822Z,30.66
2018-07-31T11:45:14.722Z,30.65
2018-07-31T11:47:42.401Z,30.64
2018-07-31T11:50:10.242Z,30.60
2018-07-31T11:52:38.043Z,30.58
2018-07-31T11:55:05.699Z,30.54
2018-07-31T11:57:33.413Z,30.58
2018-07-31T12:00:01.338Z,30.63
2018-07-31T12:02:28.934Z,30.67
2018-07-31T12:04:56.790Z,30.70
2018-07-31T12:07:24.709Z,30.74
2018-07-31T12:09:52.748Z,30.82
2018-07-31T12:12:20.475Z,30.88
2018-07-31T12:14:48.202Z,30.92
2018-07-31T12:17:15.816Z,30.93
2018-07-31T12:19:43.605Z,30.91
2018-07-31T12:22:11.304Z,30.87
2018-07-31T12:24:38.846Z,30.88
2018-07-31T12:27:06.847Z,30.92
2018-07-31T12:29:34.590Z,30.96
2018-07-31T12:32:02.263Z,30.97
2018-07-31T12:34:30.100Z,30.99
2018-07-31T12:36:57.956Z,31.02
2018-07-31T12:39:25.537Z,31.06
2018-07-31T12:41:53.376Z,31.08
2018-07-31T12:47:03.884Z,31.12
2018-07-31T12:49:31.465Z,31.15
2018-07-31T12:51:59.101Z,31.18
2018-07-31T12:54:27.122Z,31.16
2018-07-31T12:56:54.694Z,31.15
2018-07-31T12:59:22.385Z,31.18
2018-07-31T13:01:50.527Z,31.14
2018-07-31T13:04:18.179Z,31.09
2018-07-31T13:06:46.003Z,31.06
2018-07-31T13:09:13.751Z,31.07
2018-07-31T13:11:41.409Z,31.04
2018-07-31T13:14:09.236Z,31.00
2018-07-31T13:16:36.946Z,30.95
2018-07-31T13:19:04.599Z,30.91
2018-07-31T13:21:32.420Z,30.88
2018-07-31T13:24:00.174Z,30.82
2018-07-31T13:26:27.806Z,30.72
2018-07-31T13:28:55.524Z,30.66
2018-07-31T13:31:23.183Z,30.59
2018-07-31T13:33:50.795Z,30.55
2018-07-31T13:36:18.831Z,30.52
2018-07-31T13:38:46.590Z,30.46
2018-07-31T13:41:14.321Z,30.39
2018-07-31T13:43:42.250Z,30.25
2018-07-31T13:46:40.568Z,30.14
2018-07-31T13:49:08.299Z,30.02
2018-07-31T13:51:35.943Z,29.93
2018-07-31T13:54:03.960Z,29.81
2018-07-31T13:56:31.683Z,29.72
2018-07-31T13:58:59.286Z,29.69
2018-07-31T14:01:26.978Z,29.66
2018-07-31T14:03:54.842Z,29.65
2018-07-31T14:06:22.512Z,29.63
2018-07-31T14:08:50.282Z,29.59
2018-07-31T14:11:17.993Z,29.56
2018-07-31T14:13:45.654Z,29.56
2018-07-31T14:16:13.433Z,29.51
2018-07-31T14:18:41.137Z,29.48
2018-07-31T14:21:08.940Z,29.47
2018-07-31T14:23:36.697Z,29.46
2018-07-31T14:26:04.534Z,29.42
2018-07-31T14:28:32.121Z,29.39
2018-07-31T14:30:59.919Z,29.37
2018-07-31T14:33:27.625Z,29.35
2018-07-31T14:35:55.252Z,29.32
2018-07-31T14:41:02.880Z,29.25
2018-07-31T14:43:30.538Z,29.21
2018-07-31T14:45:58.128Z,29.18
2018-07-31T14:48:26.170Z,29.17
2018-07-31T14:50:53.692Z,29.15
2018-07-31T14:53:21.252Z,29.16
2018-07-31T14:55:49.227Z,29.14
2018-07-31T14:58:16.805Z,29.11
2018-07-31T15:00:44.493Z,29.02
2018-07-31T15:03:12.261Z,29.09
2018-07-31T15:05:39.869Z,29.06
2018-07-31T15:08:07.531Z,29.06
2018-07-31T15:10:35.449Z,29.06
2018-07-31T15:13:03.109Z,29.05
2018-07-31T15:15:30.686Z,29.05
2018-07-31T15:17:58.638Z,29.01
2018-07-31T15:20:26.198Z,28.96
2018-07-31T15:22:53.806Z,28.90
2018-07-31T15:25:21.926Z,28.85
2018-07-31T15:27:49.561Z,28.80
2018-07-31T15:30:17.193Z,28.78
2018-07-31T15:32:45.173Z,28.79
2018-07-31T15:35:12.840Z,28.78
2018-07-31T15:37:40.505Z,28.77
2018-07-31T15:40:08.484Z,28.75
2018-07-31T15:42:36.105Z,28.75
2018-07-31T15:45:04.104Z,28.78
2018-07-31T15:47:32.164Z,28.83
2018-07-31T15:49:59.718Z,28.88
2018-07-31T15:52:27.341Z,28.88
2018-07-31T15:54:55.382Z,28.89
2018-07-31T15:57:22.948Z,28.89
2018-07-31T15:59:50.564Z,28.90
2018-07-31T16:02:18.349Z,28.96
2018-07-31T16:04:45.882Z,28.98
2018-07-31T16:07:13.531Z,28.96
2018-07-31T16:09:41.302Z,28.94
2018-07-31T16:12:08.992Z,28.92
2018-07-31T16:14:51.724Z,28.87
2018-07-31T16:17:19.315Z,28.77
2018-07-31T16:19:46.937Z,28.68
2018-07-31T16:22:15.007Z,28.60
2018-07-31T16:24:42.923Z,28.52
2018-07-31T16:27:10.578Z,28.39
2018-07-31T16:29:38.493Z,28.23
2018-07-31T16:32:06.204Z,28.11
2018-07-31T16:34:33.845Z,28.00
2018-07-31T16:37:01.976Z,27.91
2018-07-31T16:39:29.587Z,27.80
2018-07-31T16:41:57.377Z,27.68
2018-07-31T16:44:25.317Z,27.61
2018-07-31T16:46:52.907Z,27.53
2018-07-31T16:49:20.567Z,27.45
2018-07-31T16:51:48.549Z,27.38
2018-07-31T16:54:16.163Z,27.30
2018-07-31T16:56:43.765Z,27.22
2018-07-31T16:59:11.672Z,27.17
2018-07-31T17:01:39.263Z,27.15
2018-07-31T17:04:06.931Z,27.11
2018-07-31T17:06:34.780Z,27.03
2018-07-31T17:09:02.451Z,26.94
2018-07-31T17:11:30.205Z,26.85
2018-07-31T17:13:58.189Z,26.77
2018-07-31T17:16:25.793Z,26.70
2018-07-31T17:18:53.403Z,26.57
2018-07-31T17:21:21.172Z,26.47
2018-07-31T17:23:48.762Z,26.40
2018-07-31T17:26:16.340Z,26.29
2018-07-31T17:28:44.282Z,26.23
2018-07-31T17:31:11.965Z,26.15
2018-07-31T17:33:39.537Z,26.05
2018-07-31T17:36:07.599Z,25.95
2018-07-31T17:38:35.236Z,25.87
2018-07-31T17:41:02.919Z,25.81
2018-07-31T17:43:30.854Z,25.73
2018-07-31T17:45:58.465Z,25.65
2018-07-31T17:48:26.129Z,25.59
2018-07-31T17:50:54.189Z,25.57
2018-07-31T17:53:21.825Z,25.55
2018-07-31T17:55:49.681Z,25.51
2018-07-31T17:58:17.595Z,25.47
2018-07-31T18:00:45.265Z,25.44
2018-07-31T18:03:12.885Z,25.40
2018-07-31T18:05:40.815Z,25.38
2018-07-31T18:08:08.526Z,25.34
2018-07-31T18:10:36.154Z,25.29
2018-07-31T18:13:04.121Z,25.28
2018-07-31T18:16:02.353Z,25.25
2018-07-31T18:18:30.298Z,25.25
2018-07-31T18:20:58.119Z,25.23
2018-07-31T18:23:25.836Z,25.19
2018-07-31T18:25:53.759Z,25.13
2018-07-31T18:28:21.385Z,25.11
2018-07-31T18:30:48.948Z,25.09
2018-07-31T18:33:16.828Z,25.06
2018-07-31T18:35:44.477Z,25.06
2018-07-31T18:38:12.104Z,25.05
2018-07-31T18:40:42.528Z,25.02
2018-07-31T18:43:10.205Z,24.97
2018-07-31T18:45:37.819Z,24.95
2018-07-31T18:48:05.821Z,24.90
2018-07-31T18:50:33.508Z,24.86
2018-07-31T18:53:01.136Z,24.85
2018-07-31T18:55:29.034Z,24.79
2018-07-31T18:57:56.898Z,24.75
2018-07-31T19:00:24.509Z,24.72
2018-07-31T19:02:52.627Z,24.69
2018-07-31T19:05:20.249Z,24.68
2018-07-31T19:07:47.823Z,24.68
2018-07-31T19:10:15.784Z,24.64
2018-07-31T19:12:43.417Z,24.61
2018-07-31T19:15:11.093Z,24.61
2018-07-31T19:17:39.076Z,24.59
2018-07-31T19:20:06.742Z,24.59
2018-07-31T19:22:34.431Z,24.60
2018-07-31T19:25:02.596Z,24.59
2018-07-31T19:27:30.286Z,24.57
2018-07-31T19:29:57.936Z,24.54
2018-07-31T19:32:25.940Z,24.51
2018-07-31T19:34:53.626Z,24.48
2018-07-31T19:37:21.292Z,24.44
2018-07-31T19:39:49.214Z,24.42
2018-07-31T19:42:17.003Z,24.41
2018-07-31T19:44:44.518Z,24.38
2018-07-31T19:47:12.548Z,24.35
2018-07-31T19:49:40.141Z,24.31
2018-07-31T19:52:07.851Z,24.31
2018-07-31T19:54:36.021Z,24.31
2018-07-31T19:57:03.683Z,24.29
2018-07-31T19:59:31.301Z,24.27
2018-07-31T20:01:59.306Z,24.25
2018-07-31T20:04:26.906Z,24.27
2018-07-31T20:06:54.502Z,24.28
2018-07-31T20:09:24.561Z,24.29
2018-07-31T20:11:52.436Z,24.28
2018-07-31T20:14:20.063Z,24.28
2018-07-31T20:16:47.805Z,24.27
2018-07-31T20:19:15.455Z,24.26
2018-07-31T20:21:43.125Z,24.24
2018-07-31T20:24:11.033Z,24.23
2018-07-31T20:26:38.720Z,24.24
2018-07-31T20:29:06.301Z,24.23
2018-07-31T20:31:34.158Z,24.23
2018-07-31T20:34:01.779Z,24.24
2018-07-31T20:36:29.390Z,24.25
2018-07-31T20:38:57.231Z,24.25
2018-07-31T20:41:24.891Z,24.24
2018-07-31T20:43:52.600Z,24.23
2018-07-31T20:46:20.471Z,24.23
2018-07-31T20:48:48.103Z,24.22
2018-07-31T20:51:15.783Z,24.21
2018-07-31T20:53:44.164Z,24.23
2018-07-31T20:56:18.499Z,24.23
2018-07-31T20:58:46.385Z,24.23
2018-07-31T21:01:14.548Z,24.22
2018-07-31T21:03:42.281Z,24.22
2018-07-31T21:06:10.037Z,24.20
2018-07-31T21:08:37.611Z,24.18
2018-07-31T21:11:05.357Z,24.18
2018-07-31T21:13:33.488Z,24.17
2018-07-31T21:16:01.158Z,24.16
2018-07-31T21:18:28.829Z,24.15
2018-07-31T21:20:56.857Z,24.14
2018-07-31T21:23:24.738Z,24.14
2018-07-31T21:25:52.394Z,24.14
2018-07-31T21:28:20.497Z,24.14
2018-07-31T21:30:48.267Z,24.13
2018-07-31T21:33:15.879Z,24.11
2018-07-31T21:35:43.722Z,24.09
2018-07-31T21:38:11.393Z,24.07
2018-07-31T21:40:38.998Z,24.08
2018-07-31T21:43:06.771Z,24.10
2018-07-31T21:45:34.415Z,24.13
2018-07-31T21:48:02.091Z,24.14
2018-07-31T21:50:30.099Z,24.12
2018-07-31T21:52:57.676Z,24.13
2018-07-31T21:55:25.268Z,24.13
2018-07-31T21:57:53.133Z,24.13
2018-07-31T22:00:20.825Z,24.12
2018-07-31T22:02:48.523Z,24.12
2018-07-31T22:05:16.454Z,24.11
2018-07-31T22:07:44.036Z,24.13
2018-07-31T22:10:11.741Z,24.13
2018-07-31T22:12:39.620Z,24.13
2018-07-31T22:15:07.206Z,24.11
2018-07-31T22:17:34.847Z,24.11
2018-07-31T22:20:02.778Z,24.11
2018-07-31T22:22:30.351Z,24.10
2018-07-31T22:24:57.995Z,24.10
2018-07-31T22:27:25.735Z,24.10
2018-07-31T22:29:53.281Z,24.12
2018-07-31T22:32:20.934Z,24.12
2018-07-31T22:34:48.756Z,24.11
2018-07-31T22:37:16.369Z,24.10
2018-07-31T22:39:44.017Z,24.07
2018-07-31T22:42:11.998Z,24.05
2018-07-31T22:44:39.664Z,24.02
2018-07-31T22:47:07.220Z,24.02
2018-07-31T22:49:35.164Z,23.99
2018-07-31T22:52:02.754Z,23.90
2018-07-31T22:54:30.623Z,23.98
2018-07-31T22:56:58.349Z,23.97
2018-07-31T22:59:25.972Z,23.95
2018-07-31T23:01:53.614Z,23.93
2018-07-31T23:04:21.583Z,23.93
2018-07-31T23:06:49.113Z,23.92
2018-07-31T23:09:16.722Z,23.91
2018-07-31T23:11:44.882Z,23.91
2018-07-31T23:14:12.566Z,23.90
2018-07-31T23:16:40.195Z,23.92
2018-07-31T23:19:08.049Z,23.93
2018-07-31T23:21:35.821Z,23.93
2018-07-31T23:24:03.442Z,23.93
2018-07-31T23:26:31.461Z,23.93
2018-07-31T23:28:58.991Z,23.92
2018-07-31T23:31:26.595Z,23.93
2018-07-31T23:33:54.606Z,23.93
2018-07-31T23:36:22.249Z,23.93
2018-07-31T23:38:49.869Z,23.95
2018-07-31T23:41:17.940Z,23.96
2018-07-31T23:43:45.599Z,23.97
2018-07-31T23:46:13.230Z,23.98
2018-07-31T23:48:40.975Z,23.97
2018-07-31T23:51:08.598Z,23.95
2018-07-31T23:53:36.300Z,23.96
2018-07-31T23:56:04.308Z,23.94
2018-07-31T23:58:31.910Z,23.93
